Ariton, Alabama
Current Conditions -  °F | °C
As of 3:53 AM on Wednesday 26 Nov 2014 (Local Time) from KLOR Reporting Station
Broken Clouds Broken Clouds  
Wind Chill:   Ceiling: 10000
Heat Index:   Visibility: 10mi
Dew Point:   Wind: 7mph
Humidity: 74%   Direction: 320°NW
Pressure: 30.08"   Gusts: NA
Location:  31.6°N, 85.72°W
Report Text: KLOR 260953Z AUTO 32006KT 10SM BKN100 07/03 A3008 RMK AO2 SLP185 T00720028 TSNO $
Loading
Personal Weather Stations






























Interactive Weather Map New forecast layout! Learn more

10-Day Weather Forecast

Advertisements
Track Severe Weather on mobile